sensor_id;sensor_type;location;lat;lon;timestamp;pressure;altitude;pressure_sealevel;temperature
15144;BMP180;7672;50.834;6.286;2022-09-13T00:02:16;99211.25;;;21.78
15144;BMP180;7672;50.834;6.286;2022-09-13T00:04:43;99219.06;;;21.77
15144;BMP180;7672;50.834;6.286;2022-09-13T00:07:10;99219.88;;;21.77
15144;BMP180;7672;50.834;6.286;2022-09-13T00:09:37;99215.63;;;21.76
15144;BMP180;7672;50.834;6.286;2022-09-13T00:12:04;99211.25;;;21.78
15144;BMP180;7672;50.834;6.286;2022-09-13T00:14:31;99211.25;;;21.78
15144;BMP180;7672;50.834;6.286;2022-09-13T00:16:57;99206.09;;;21.78
15144;BMP180;7672;50.834;6.286;2022-09-13T00:19:24;99206.09;;;21.78
15144;BMP180;7672;50.834;6.286;2022-09-13T00:21:51;99207.75;;;21.79
15144;BMP180;7672;50.834;6.286;2022-09-13T00:24:18;99201.78;;;21.79
15144;BMP180;7672;50.834;6.286;2022-09-13T00:26:45;99211.88;;;21.83
15144;BMP180;7672;50.834;6.286;2022-09-13T00:29:11;99214.34;;;21.85
15144;BMP180;7672;50.834;6.286;2022-09-13T00:31:39;99208.22;;;21.87
15144;BMP180;7672;50.834;6.286;2022-09-13T00:34:05;99208.97;;;21.89
15144;BMP180;7672;50.834;6.286;2022-09-13T00:36:32;99214.00;;;21.92
15144;BMP180;7672;50.834;6.286;2022-09-13T00:39:00;99207.00;;;21.94
15144;BMP180;7672;50.834;6.286;2022-09-13T00:41:27;99201.78;;;21.96
15144;BMP180;7672;50.834;6.286;2022-09-13T00:44:00;99207.69;;;21.98
15144;BMP180;7672;50.834;6.286;2022-09-13T00:49:18;99192.19;;;21.99
15144;BMP180;7672;50.834;6.286;2022-09-13T00:51:56;99195.53;;;22.01
15144;BMP180;7672;50.834;6.286;2022-09-13T00:54:29;99199.69;;;22.04
15144;BMP180;7672;50.834;6.286;2022-09-13T00:57:01;99204.75;;;22.05
15144;BMP180;7672;50.834;6.286;2022-09-13T00:59:35;99207.16;;;22.08
15144;BMP180;7672;50.834;6.286;2022-09-13T01:02:03;99213.09;;;22.10
15144;BMP180;7672;50.834;6.286;2022-09-13T01:04:35;99205.19;;;22.13
15144;BMP180;7672;50.834;6.286;2022-09-13T01:07:10;99209.44;;;22.14
15144;BMP180;7672;50.834;6.286;2022-09-13T01:09:43;99202.31;;;22.19
15144;BMP180;7672;50.834;6.286;2022-09-13T01:12:50;99205.72;;;22.20
15144;BMP180;7672;50.834;6.286;2022-09-13T01:15:20;99197.78;;;22.24
15144;BMP180;7672;50.834;6.286;2022-09-13T01:17:48;99201.13;;;22.26
15144;BMP180;7672;50.834;6.286;2022-09-13T01:20:16;99197.50;;;22.30
15144;BMP180;7672;50.834;6.286;2022-09-13T01:23:12;99191.44;;;22.31
15144;BMP180;7672;50.834;6.286;2022-09-13T01:29:26;99194.31;;;22.25
15144;BMP180;7672;50.834;6.286;2022-09-13T01:38:21;99197.34;;;22.16
15144;BMP180;7672;50.834;6.286;2022-09-13T01:41:31;99194.81;;;22.15
15144;BMP180;7672;50.834;6.286;2022-09-13T01:47:30;99184.00;;;22.08
15144;BMP180;7672;50.834;6.286;2022-09-13T01:52:56;99180.69;;;22.06
15144;BMP180;7672;50.834;6.286;2022-09-13T02:01:20;99165.38;;;22.03
15144;BMP180;7672;50.834;6.286;2022-09-13T02:03:57;99156.94;;;22.01
15144;BMP180;7672;50.834;6.286;2022-09-13T02:06:37;99156.94;;;22.01
15144;BMP180;7672;50.834;6.286;2022-09-13T02:09:18;99158.59;;;22.02
15144;BMP180;7672;50.834;6.286;2022-09-13T02:11:53;99160.19;;;22.05
15144;BMP180;7672;50.834;6.286;2022-09-13T02:14:35;99149.03;;;22.04
15144;BMP180;7672;50.834;6.286;2022-09-13T02:17:06;99159.16;;;22.07
15144;BMP180;7672;50.834;6.286;2022-09-13T02:19:55;99148.81;;;22.09
15144;BMP180;7672;50.834;6.286;2022-09-13T02:22:30;99142.69;;;22.11
15144;BMP180;7672;50.834;6.286;2022-09-13T02:25:13;99145.25;;;22.11
15144;BMP180;7672;50.834;6.286;2022-09-13T02:27:46;99144.28;;;22.14
15144;BMP180;7672;50.834;6.286;2022-09-13T02:30:14;99147.59;;;22.16
15144;BMP180;7672;50.834;6.286;2022-09-13T02:32:54;99143.22;;;22.18
15144;BMP180;7672;50.834;6.286;2022-09-13T02:35:33;99148.28;;;22.19
15144;BMP180;7672;50.834;6.286;2022-09-13T02:38:11;99143.81;;;22.23
15144;BMP180;7672;50.834;6.286;2022-09-13T02:40:54;99147.13;;;22.25
15144;BMP180;7672;50.834;6.286;2022-09-13T02:43:30;99141.00;;;22.27
15144;BMP180;7672;50.834;6.286;2022-09-13T02:46:29;99144.44;;;22.28
15144;BMP180;7672;50.834;6.286;2022-09-13T02:52:31;99121.19;;;22.29
15144;BMP180;7672;50.834;6.286;2022-09-13T02:55:21;99123.59;;;22.32
15144;BMP180;7672;50.834;6.286;2022-09-13T02:58:08;99115.69;;;22.35
15144;BMP180;7672;50.834;6.286;2022-09-13T03:00:37;99131.91;;;22.37
15144;BMP180;7672;50.834;6.286;2022-09-13T03:03:08;99123.03;;;22.42
15144;BMP180;7672;50.834;6.286;2022-09-13T03:05:37;99108.34;;;22.44
15144;BMP180;7672;50.834;6.286;2022-09-13T03:08:06;99109.06;;;22.46
15144;BMP180;7672;50.834;6.286;2022-09-13T03:11:17;99114.22;;;22.46
15144;BMP180;7672;50.834;6.286;2022-09-13T03:17:12;99113.22;;;22.49
15144;BMP180;7672;50.834;6.286;2022-09-13T03:20:05;99108.06;;;22.49
15144;BMP180;7672;50.834;6.286;2022-09-13T03:28:41;99105.44;;;22.50
15144;BMP180;7672;50.834;6.286;2022-09-13T03:31:40;99107.16;;;22.50
15144;BMP180;7672;50.834;6.286;2022-09-13T03:34:20;99119.97;;;22.51
15144;BMP180;7672;50.834;6.286;2022-09-13T03:37:29;99125.19;;;22.50
15144;BMP180;7672;50.834;6.286;2022-09-13T03:40:08;99125.13;;;22.51
15144;BMP180;7672;50.834;6.286;2022-09-13T03:42:54;99138.75;;;22.53
15144;BMP180;7672;50.834;6.286;2022-09-13T03:45:28;99138.84;;;22.52
15144;BMP180;7672;50.834;6.286;2022-09-13T03:47:58;99144.00;;;22.52
15144;BMP180;7672;50.834;6.286;2022-09-13T03:50:26;99161.03;;;22.54
15144;BMP180;7672;50.834;6.286;2022-09-13T03:53:02;99159.28;;;22.55
15144;BMP180;7672;50.834;6.286;2022-09-13T03:55:32;99153.44;;;22.51
15144;BMP180;7672;50.834;6.286;2022-09-13T03:58:00;99150.81;;;22.53
15144;BMP180;7672;50.834;6.286;2022-09-13T04:00:27;99149.13;;;22.52
15144;BMP180;7672;50.834;6.286;2022-09-13T04:02:55;99149.88;;;22.54
15144;BMP180;7672;50.834;6.286;2022-09-13T04:05:21;99151.53;;;22.55
15144;BMP180;7672;50.834;6.286;2022-09-13T04:07:48;99158.38;;;22.56
15144;BMP180;7672;50.834;6.286;2022-09-13T04:10:15;99148.97;;;22.55
15144;BMP180;7672;50.834;6.286;2022-09-13T04:12:42;99151.63;;;22.53
15144;BMP180;7672;50.834;6.286;2022-09-13T04:15:09;99157.59;;;22.54
15144;BMP180;7672;50.834;6.286;2022-09-13T04:17:35;99162.09;;;22.50
15144;BMP180;7672;50.834;6.286;2022-09-13T04:20:03;99161.34;;;22.48
15144;BMP180;7672;50.834;6.286;2022-09-13T04:22:31;99164.81;;;22.47
15144;BMP180;7672;50.834;6.286;2022-09-13T04:24:59;99163.09;;;22.48
15144;BMP180;7672;50.834;6.286;2022-09-13T04:27:28;99163.09;;;22.48
15144;BMP180;7672;50.834;6.286;2022-09-13T04:29:55;99169.88;;;22.49
15144;BMP180;7672;50.834;6.286;2022-09-13T04:32:22;99168.97;;;22.50
15144;BMP180;7672;50.834;6.286;2022-09-13T04:34:49;99167.25;;;22.50
15144;BMP180;7672;50.834;6.286;2022-09-13T04:37:15;99168.88;;;22.51
15144;BMP180;7672;50.834;6.286;2022-09-13T04:39:42;99168.06;;;22.51
15144;BMP180;7672;50.834;6.286;2022-09-13T04:42:09;99163.75;;;22.51
15144;BMP180;7672;50.834;6.286;2022-09-13T04:44:37;99158.44;;;22.54
15144;BMP180;7672;50.834;6.286;2022-09-13T04:47:05;99158.44;;;22.54
15144;BMP180;7672;50.834;6.286;2022-09-13T04:49:31;99167.00;;;22.55
15144;BMP180;7672;50.834;6.286;2022-09-13T04:52:02;99164.41;;;22.55
15144;BMP180;7672;50.834;6.286;2022-09-13T04:54:32;99161.13;;;22.53
15144;BMP180;7672;50.834;6.286;2022-09-13T04:56:58;99160.13;;;22.55
15144;BMP180;7672;50.834;6.286;2022-09-13T04:59:25;99162.63;;;22.57
15144;BMP180;7672;50.834;6.286;2022-09-13T05:01:53;99157.53;;;22.55
15144;BMP180;7672;50.834;6.286;2022-09-13T05:04:20;99153.13;;;22.57
15144;BMP180;7672;50.834;6.286;2022-09-13T05:06:49;99156.47;;;22.59
15144;BMP180;7672;50.834;6.286;2022-09-13T05:09:16;99158.19;;;22.59
15144;BMP180;7672;50.834;6.286;2022-09-13T05:11:43;99151.31;;;22.59
15144;BMP180;7672;50.834;6.286;2022-09-13T05:14:11;99151.31;;;22.59
15144;BMP180;7672;50.834;6.286;2022-09-13T05:16:38;99140.16;;;22.59
15144;BMP180;7672;50.834;6.286;2022-09-13T05:19:05;99147.88;;;22.59
15144;BMP180;7672;50.834;6.286;2022-09-13T05:21:32;99143.50;;;22.61
15144;BMP180;7672;50.834;6.286;2022-09-13T05:23:59;99144.31;;;22.61
15144;BMP180;7672;50.834;6.286;2022-09-13T05:26:28;99157.97;;;22.63
15144;BMP180;7672;50.834;6.286;2022-09-13T05:29:00;99150.16;;;22.65
15144;BMP180;7672;50.834;6.286;2022-09-13T05:31:34;99157.78;;;22.66
15144;BMP180;7672;50.834;6.286;2022-09-13T05:34:09;99153.41;;;22.68
15144;BMP180;7672;50.834;6.286;2022-09-13T05:36:37;99147.25;;;22.71
15144;BMP180;7672;50.834;6.286;2022-09-13T05:39:06;99144.59;;;22.72
15144;BMP180;7672;50.834;6.286;2022-09-13T05:41:53;99147.09;;;22.74
15144;BMP180;7672;50.834;6.286;2022-09-13T05:44:20;99144.19;;;22.80
15144;BMP180;7672;50.834;6.286;2022-09-13T05:46:50;99135.38;;;22.84
15144;BMP180;7672;50.834;6.286;2022-09-13T05:49:17;99141.31;;;22.86
15144;BMP180;7672;50.834;6.286;2022-09-13T05:51:44;99137.63;;;22.90
15144;BMP180;7672;50.834;6.286;2022-09-13T05:54:12;99134.78;;;22.94
15144;BMP180;7672;50.834;6.286;2022-09-13T05:56:39;99130.41;;;22.96
15144;BMP180;7672;50.834;6.286;2022-09-13T05:59:06;99151.53;;;23.02
15144;BMP180;7672;50.834;6.286;2022-09-13T06:01:34;99150.56;;;23.05
15144;BMP180;7672;50.834;6.286;2022-09-13T06:04:01;99165.69;;;23.11
15144;BMP180;7672;50.834;6.286;2022-09-13T06:06:28;99169.81;;;23.13
15144;BMP180;7672;50.834;6.286;2022-09-13T06:08:56;99174.75;;;23.18
15144;BMP180;7672;50.834;6.286;2022-09-13T06:11:24;99166.78;;;23.22
15144;BMP180;7672;50.834;6.286;2022-09-13T06:13:52;99153.59;;;23.27
15144;BMP180;7672;50.834;6.286;2022-09-13T06:16:19;99148.22;;;23.31
15144;BMP180;7672;50.834;6.286;2022-09-13T06:18:47;99153.94;;;23.36
15144;BMP180;7672;50.834;6.286;2022-09-13T06:21:18;99159.50;;;23.44
15144;BMP180;7672;50.834;6.286;2022-09-13T06:23:51;99154.81;;;23.51
15144;BMP180;7672;50.834;6.286;2022-09-13T06:26:22;99155.31;;;23.57
15144;BMP180;7672;50.834;6.286;2022-09-13T06:28:52;99152.38;;;23.63
15144;BMP180;7672;50.834;6.286;2022-09-13T06:31:24;99154.59;;;23.69
15144;BMP180;7672;50.834;6.286;2022-09-13T06:33:58;99152.56;;;23.75
15144;BMP180;7672;50.834;6.286;2022-09-13T06:36:26;99153.84;;;23.82
15144;BMP180;7672;50.834;6.286;2022-09-13T06:38:53;99153.50;;;23.88
15144;BMP180;7672;50.834;6.286;2022-09-13T06:41:22;99153.88;;;23.96
15144;BMP180;7672;50.834;6.286;2022-09-13T06:43:55;99138.06;;;24.02
15144;BMP180;7672;50.834;6.286;2022-09-13T06:46:24;99152.16;;;24.11
15144;BMP180;7672;50.834;6.286;2022-09-13T06:48:52;99150.13;;;24.16
15144;BMP180;7672;50.834;6.286;2022-09-13T06:51:22;99148.75;;;24.24
15144;BMP180;7672;50.834;6.286;2022-09-13T06:53:50;99154.41;;;24.30
15144;BMP180;7672;50.834;6.286;2022-09-13T06:56:21;99141.13;;;24.36
15144;BMP180;7672;50.834;6.286;2022-09-13T06:58:50;99151.03;;;24.44
15144;BMP180;7672;50.834;6.286;2022-09-13T07:01:27;99149.81;;;24.49
15144;BMP180;7672;50.834;6.286;2022-09-13T07:04:02;99157.31;;;24.54
15144;BMP180;7672;50.834;6.286;2022-09-13T07:06:33;99155.19;;;24.60
15144;BMP180;7672;50.834;6.286;2022-09-13T07:09:03;99150.56;;;24.65
15144;BMP180;7672;50.834;6.286;2022-09-13T07:11:37;99150.91;;;24.73
15144;BMP180;7672;50.834;6.286;2022-09-13T07:14:05;99164.28;;;24.80
15144;BMP180;7672;50.834;6.286;2022-09-13T07:16:36;99160.50;;;24.85
15144;BMP180;7672;50.834;6.286;2022-09-13T07:19:09;99159.91;;;24.94
15144;BMP180;7672;50.834;6.286;2022-09-13T07:21:38;99156.88;;;25.01
15144;BMP180;7672;50.834;6.286;2022-09-13T07:24:05;99151.16;;;25.10
15144;BMP180;7672;50.834;6.286;2022-09-13T07:26:32;99157.50;;;25.19
15144;BMP180;7672;50.834;6.286;2022-09-13T07:29:03;99143.16;;;25.27
15144;BMP180;7672;50.834;6.286;2022-09-13T07:31:40;99150.34;;;25.36
15144;BMP180;7672;50.834;6.286;2022-09-13T07:34:13;99147.28;;;25.44
15144;BMP180;7672;50.834;6.286;2022-09-13T07:36:41;99142.53;;;25.50
15144;BMP180;7672;50.834;6.286;2022-09-13T07:39:08;99146.25;;;25.58
15144;BMP180;7672;50.834;6.286;2022-09-13T07:41:41;99150.94;;;25.66
15144;BMP180;7672;50.834;6.286;2022-09-13T07:44:10;99161.34;;;25.78
15144;BMP180;7672;50.834;6.286;2022-09-13T07:46:38;99160.47;;;25.92
15144;BMP180;7672;50.834;6.286;2022-09-13T07:49:16;99156.66;;;26.10
15144;BMP180;7672;50.834;6.286;2022-09-13T07:51:44;99159.78;;;26.27
15144;BMP180;7672;50.834;6.286;2022-09-13T07:54:15;99160.94;;;26.48
15144;BMP180;7672;50.834;6.286;2022-09-13T07:56:43;99151.78;;;26.67
15144;BMP180;7672;50.834;6.286;2022-09-13T07:59:14;99160.03;;;26.84
15144;BMP180;7672;50.834;6.286;2022-09-13T08:01:45;99149.16;;;27.04
15144;BMP180;7672;50.834;6.286;2022-09-13T08:04:17;99148.56;;;27.24
15144;BMP180;7672;50.834;6.286;2022-09-13T08:06:45;99141.81;;;27.45
15144;BMP180;7672;50.834;6.286;2022-09-13T08:09:13;99146.91;;;27.70
15144;BMP180;7672;50.834;6.286;2022-09-13T08:11:47;99150.88;;;27.97
15144;BMP180;7672;50.834;6.286;2022-09-13T08:14:17;99146.72;;;28.18
15144;BMP180;7672;50.834;6.286;2022-09-13T08:16:44;99154.41;;;28.41
15144;BMP180;7672;50.834;6.286;2022-09-13T08:19:15;99158.69;;;28.75
15144;BMP180;7672;50.834;6.286;2022-09-13T08:21:43;99157.19;;;29.26
15144;BMP180;7672;50.834;6.286;2022-09-13T08:24:18;99155.94;;;29.83
15144;BMP180;7672;50.834;6.286;2022-09-13T08:26:49;99158.47;;;30.45
15144;BMP180;7672;50.834;6.286;2022-09-13T08:29:17;99153.16;;;30.95
15144;BMP180;7672;50.834;6.286;2022-09-13T08:31:44;99156.56;;;31.35
15144;BMP180;7672;50.834;6.286;2022-09-13T08:34:14;99159.34;;;31.62
15144;BMP180;7672;50.834;6.286;2022-09-13T08:36:42;99161.53;;;31.85
15144;BMP180;7672;50.834;6.286;2022-09-13T08:39:10;99161.81;;;32.10
15144;BMP180;7672;50.834;6.286;2022-09-13T08:42:05;99166.78;;;32.50
15144;BMP180;7672;50.834;6.286;2022-09-13T08:44:54;99166.75;;;33.05
15144;BMP180;7672;50.834;6.286;2022-09-13T08:47:39;99169.41;;;33.66
15144;BMP180;7672;50.834;6.286;2022-09-13T08:50:17;99170.44;;;34.33
15144;BMP180;7672;50.834;6.286;2022-09-13T08:56:01;99176.09;;;35.78
15144;BMP180;7672;50.834;6.286;2022-09-13T09:01:07;99183.81;;;37.35
15144;BMP180;7672;50.834;6.286;2022-09-13T09:04:02;99185.78;;;38.08
15144;BMP180;7672;50.834;6.286;2022-09-13T09:06:36;99196.09;;;38.83
15144;BMP180;7672;50.834;6.286;2022-09-13T09:09:07;99184.59;;;39.54
15144;BMP180;7672;50.834;6.286;2022-09-13T09:12:14;99191.41;;;40.26
15144;BMP180;7672;50.834;6.286;2022-09-13T09:15:02;99192.41;;;40.86
15144;BMP180;7672;50.834;6.286;2022-09-13T09:18:05;99199.75;;;41.30
15144;BMP180;7672;50.834;6.286;2022-09-13T09:20:41;99205.19;;;41.69
15144;BMP180;7672;50.834;6.286;2022-09-13T09:25:50;99192.97;;;42.45
15144;BMP180;7672;50.834;6.286;2022-09-13T09:28:20;99194.53;;;42.79
15144;BMP180;7672;50.834;6.286;2022-09-13T09:31:01;99203.50;;;43.03
15144;BMP180;7672;50.834;6.286;2022-09-13T09:36:34;99197.22;;;43.29
15144;BMP180;7672;50.834;6.286;2022-09-13T09:39:05;99199.09;;;43.28
15144;BMP180;7672;50.834;6.286;2022-09-13T09:41:34;99202.50;;;43.42
15144;BMP180;7672;50.834;6.286;2022-09-13T09:44:21;99191.31;;;43.64
15144;BMP180;7672;50.834;6.286;2022-09-13T09:49:25;99188.91;;;44.11
15144;BMP180;7672;50.834;6.286;2022-09-13T09:52:16;99197.19;;;44.27
15144;BMP180;7672;50.834;6.286;2022-09-13T09:54:46;99191.22;;;44.32
15144;BMP180;7672;50.834;6.286;2022-09-13T09:57:13;99194.28;;;44.35
15144;BMP180;7672;50.834;6.286;2022-09-13T09:59:40;99194.91;;;44.31
15144;BMP180;7672;50.834;6.286;2022-09-13T10:02:20;99183.16;;;44.14
15144;BMP180;7672;50.834;6.286;2022-09-13T10:04:59;99181.31;;;43.90
15144;BMP180;7672;50.834;6.286;2022-09-13T10:07:32;99185.59;;;43.60
15144;BMP180;7672;50.834;6.286;2022-09-13T10:10:08;99179.66;;;43.21
15144;BMP180;7672;50.834;6.286;2022-09-13T10:12:52;99175.78;;;42.74
15144;BMP180;7672;50.834;6.286;2022-09-13T10:15:28;99174.81;;;42.30
15144;BMP180;7672;50.834;6.286;2022-09-13T10:18:16;99167.84;;;41.83
15144;BMP180;7672;50.834;6.286;2022-09-13T10:21:06;99166.75;;;41.46
15144;BMP180;7672;50.834;6.286;2022-09-13T10:23:35;99164.22;;;41.12
15144;BMP180;7672;50.834;6.286;2022-09-13T10:31:19;99155.53;;;40.23
15144;BMP180;7672;50.834;6.286;2022-09-13T10:36:31;99154.72;;;39.60
15144;BMP180;7672;50.834;6.286;2022-09-13T10:39:22;99155.38;;;39.27
15144;BMP180;7672;50.834;6.286;2022-09-13T10:42:03;99152.16;;;38.96
15144;BMP180;7672;50.834;6.286;2022-09-13T10:44:54;99144.19;;;38.61
15144;BMP180;7672;50.834;6.286;2022-09-13T10:47:32;99145.88;;;38.39
15144;BMP180;7672;50.834;6.286;2022-09-13T10:50:28;99148.16;;;38.14
15144;BMP180;7672;50.834;6.286;2022-09-13T10:52:58;99149.72;;;38.00
15144;BMP180;7672;50.834;6.286;2022-09-13T10:55:37;99134.41;;;37.81
15144;BMP180;7672;50.834;6.286;2022-09-13T11:04:16;99129.66;;;37.24
15144;BMP180;7672;50.834;6.286;2022-09-13T11:07:02;99120.16;;;37.15
15144;BMP180;7672;50.834;6.286;2022-09-13T11:18:48;99117.00;;;38.24
15144;BMP180;7672;50.834;6.286;2022-09-13T11:21:30;99110.84;;;38.45
15144;BMP180;7672;50.834;6.286;2022-09-13T11:27:03;99121.78;;;38.57
15144;BMP180;7672;50.834;6.286;2022-09-13T11:29:55;99118.00;;;38.51
15144;BMP180;7672;50.834;6.286;2022-09-13T11:36:00;99110.75;;;38.68
15144;BMP180;7672;50.834;6.286;2022-09-13T11:39:06;99111.66;;;38.75
15144;BMP180;7672;50.834;6.286;2022-09-13T11:42:08;99116.47;;;38.71
15144;BMP180;7672;50.834;6.286;2022-09-13T11:56:37;99124.31;;;38.36
15144;BMP180;7672;50.834;6.286;2022-09-13T11:59:42;99120.97;;;38.28
15144;BMP180;7672;50.834;6.286;2022-09-13T12:02:38;99110.84;;;38.17
15144;BMP180;7672;50.834;6.286;2022-09-13T12:05:31;99106.78;;;38.06
15144;BMP180;7672;50.834;6.286;2022-09-13T12:10:58;99112.31;;;37.82
15144;BMP180;7672;50.834;6.286;2022-09-13T12:13:49;99111.94;;;37.63
15144;BMP180;7672;50.834;6.286;2022-09-13T12:16:47;99106.69;;;37.41
15144;BMP180;7672;50.834;6.286;2022-09-13T12:19:44;99097.38;;;37.22
15144;BMP180;7672;50.834;6.286;2022-09-13T12:22:12;99097.81;;;37.11
15144;BMP180;7672;50.834;6.286;2022-09-13T12:24:47;99092.56;;;37.04
15144;BMP180;7672;50.834;6.286;2022-09-13T12:27:38;99096.09;;;36.96
15144;BMP180;7672;50.834;6.286;2022-09-13T12:30:24;99085.41;;;36.90
15144;BMP180;7672;50.834;6.286;2022-09-13T12:32:52;99080.38;;;36.80
15144;BMP180;7672;50.834;6.286;2022-09-13T12:35:44;99091.25;;;36.69
15144;BMP180;7672;50.834;6.286;2022-09-13T12:38:32;99081.59;;;36.54
15144;BMP180;7672;50.834;6.286;2022-09-13T12:50:31;99095.56;;;36.00
15144;BMP180;7672;50.834;6.286;2022-09-13T12:59:31;99078.50;;;35.65
15144;BMP180;7672;50.834;6.286;2022-09-13T13:02:32;99079.16;;;35.51
15144;BMP180;7672;50.834;6.286;2022-09-13T13:05:33;99076.97;;;35.38
15144;BMP180;7672;50.834;6.286;2022-09-13T13:08:06;99069.91;;;35.31
15144;BMP180;7672;50.834;6.286;2022-09-13T13:10:43;99069.25;;;35.21
15144;BMP180;7672;50.834;6.286;2022-09-13T13:13:22;99071.38;;;35.17
15144;BMP180;7672;50.834;6.286;2022-09-13T13:21:20;99067.84;;;34.85
15144;BMP180;7672;50.834;6.286;2022-09-13T13:26:54;99055.84;;;34.75
15144;BMP180;7672;50.834;6.286;2022-09-13T13:29:31;99061.09;;;34.75
15144;BMP180;7672;50.834;6.286;2022-09-13T13:34:45;99058.78;;;34.72
15144;BMP180;7672;50.834;6.286;2022-09-13T13:39:46;99057.78;;;34.73
15144;BMP180;7672;50.834;6.286;2022-09-13T13:42:30;99053.00;;;34.68
15144;BMP180;7672;50.834;6.286;2022-09-13T13:50:17;99046.75;;;34.53
15144;BMP180;7672;50.834;6.286;2022-09-13T13:52:54;99049.22;;;34.55
15144;BMP180;7672;50.834;6.286;2022-09-13T13:58:28;99053.94;;;34.52
15144;BMP180;7672;50.834;6.286;2022-09-13T14:00:59;99045.91;;;34.53
15144;BMP180;7672;50.834;6.286;2022-09-13T14:04:03;99042.91;;;34.48
15144;BMP180;7672;50.834;6.286;2022-09-13T14:06:55;99043.91;;;34.47
15144;BMP180;7672;50.834;6.286;2022-09-13T14:10:40;99042.19;;;34.38
15144;BMP180;7672;50.834;6.286;2022-09-13T14:19:46;99046.50;;;34.06
15144;BMP180;7672;50.834;6.286;2022-09-13T14:22:23;99040.34;;;33.97
15144;BMP180;7672;50.834;6.286;2022-09-13T14:27:55;99038.78;;;33.79
15144;BMP180;7672;50.834;6.286;2022-09-13T14:30:31;99044.63;;;33.73
15144;BMP180;7672;50.834;6.286;2022-09-13T14:33:00;99041.94;;;33.65
15144;BMP180;7672;50.834;6.286;2022-09-13T14:35:39;99040.25;;;33.56
15144;BMP180;7672;50.834;6.286;2022-09-13T14:40:53;99037.31;;;33.59
15144;BMP180;7672;50.834;6.286;2022-09-13T14:43:27;99039.44;;;33.38
15144;BMP180;7672;50.834;6.286;2022-09-13T14:46:12;99047.13;;;33.22
15144;BMP180;7672;50.834;6.286;2022-09-13T14:49:24;99040.81;;;32.98
15144;BMP180;7672;50.834;6.286;2022-09-13T14:52:01;99036.31;;;32.91
15144;BMP180;7672;50.834;6.286;2022-09-13T14:54:43;99046.34;;;32.78
15144;BMP180;7672;50.834;6.286;2022-09-13T14:57:30;99042.97;;;32.68
15144;BMP180;7672;50.834;6.286;2022-09-13T15:00:16;99034.63;;;32.55
15144;BMP180;7672;50.834;6.286;2022-09-13T15:03:04;99046.91;;;32.45
15144;BMP180;7672;50.834;6.286;2022-09-13T15:05:37;99043.50;;;32.35
15144;BMP180;7672;50.834;6.286;2022-09-13T15:11:03;99053.50;;;32.13
15144;BMP180;7672;50.834;6.286;2022-09-13T15:13:32;99045.97;;;32.00
15144;BMP180;7672;50.834;6.286;2022-09-13T15:16:00;99058.25;;;31.91
15144;BMP180;7672;50.834;6.286;2022-09-13T15:18:31;99057.69;;;31.78
15144;BMP180;7672;50.834;6.286;2022-09-13T15:21:14;99051.56;;;31.60
15144;BMP180;7672;50.834;6.286;2022-09-13T15:23:49;99046.16;;;31.42
15144;BMP180;7672;50.834;6.286;2022-09-13T15:26:24;99059.78;;;31.27
15144;BMP180;7672;50.834;6.286;2022-09-13T15:28:53;99049.91;;;31.12
15144;BMP180;7672;50.834;6.286;2022-09-13T15:31:34;99054.13;;;30.94
15144;BMP180;7672;50.834;6.286;2022-09-13T15:34:16;99045.31;;;30.76
15144;BMP180;7672;50.834;6.286;2022-09-13T15:39:49;99062.94;;;30.44
15144;BMP180;7672;50.834;6.286;2022-09-13T15:42:17;99062.41;;;30.30
15144;BMP180;7672;50.834;6.286;2022-09-13T15:44:43;99053.19;;;30.16
15144;BMP180;7672;50.834;6.286;2022-09-13T15:47:18;99065.72;;;30.02
15144;BMP180;7672;50.834;6.286;2022-09-13T15:49:50;99054.81;;;29.88
15144;BMP180;7672;50.834;6.286;2022-09-13T15:52:19;99060.59;;;29.71
15144;BMP180;7672;50.834;6.286;2022-09-13T15:54:50;99061.84;;;29.56
15144;BMP180;7672;50.834;6.286;2022-09-13T15:57:23;99058.97;;;29.38
15144;BMP180;7672;50.834;6.286;2022-09-13T15:59:51;99069.06;;;29.21
15144;BMP180;7672;50.834;6.286;2022-09-13T16:02:27;99071.38;;;29.04
15144;BMP180;7672;50.834;6.286;2022-09-13T16:04:55;99073.94;;;28.83
15144;BMP180;7672;50.834;6.286;2022-09-13T16:07:23;99076.84;;;28.68
15144;BMP180;7672;50.834;6.286;2022-09-13T16:09:52;99069.69;;;28.50
15144;BMP180;7672;50.834;6.286;2022-09-13T16:12:19;99070.19;;;28.33
15144;BMP180;7672;50.834;6.286;2022-09-13T16:14:49;99078.31;;;28.17
15144;BMP180;7672;50.834;6.286;2022-09-13T16:17:24;99074.28;;;28.03
15144;BMP180;7672;50.834;6.286;2022-09-13T16:19:53;99065.25;;;27.85
15144;BMP180;7672;50.834;6.286;2022-09-13T16:22:20;99069.72;;;27.72
15144;BMP180;7672;50.834;6.286;2022-09-13T16:24:47;99076.75;;;27.59
15144;BMP180;7672;50.834;6.286;2022-09-13T16:27:17;99073.41;;;27.46
15144;BMP180;7672;50.834;6.286;2022-09-13T16:29:45;99072.84;;;27.30
15144;BMP180;7672;50.834;6.286;2022-09-13T16:32:12;99068.06;;;27.13
15144;BMP180;7672;50.834;6.286;2022-09-13T16:34:39;99067.63;;;26.96
15144;BMP180;7672;50.834;6.286;2022-09-13T16:37:06;99068.78;;;26.80
15144;BMP180;7672;50.834;6.286;2022-09-13T16:39:33;99074.25;;;26.64
15144;BMP180;7672;50.834;6.286;2022-09-13T16:41:59;99072.59;;;26.51
15144;BMP180;7672;50.834;6.286;2022-09-13T16:44:26;99077.28;;;26.33
15144;BMP180;7672;50.834;6.286;2022-09-13T16:46:53;99069.75;;;26.18
15144;BMP180;7672;50.834;6.286;2022-09-13T16:49:20;99079.38;;;26.04
15144;BMP180;7672;50.834;6.286;2022-09-13T16:51:46;99072.63;;;25.89
15144;BMP180;7672;50.834;6.286;2022-09-13T16:54:13;99076.03;;;25.77
15144;BMP180;7672;50.834;6.286;2022-09-13T16:56:40;99078.47;;;25.66
15144;BMP180;7672;50.834;6.286;2022-09-13T16:59:07;99071.44;;;25.55
15144;BMP180;7672;50.834;6.286;2022-09-13T17:01:34;99078.97;;;25.46
15144;BMP180;7672;50.834;6.286;2022-09-13T17:04:02;99082.25;;;25.36
15144;BMP180;7672;50.834;6.286;2022-09-13T17:06:29;99086.28;;;25.27
15144;BMP180;7672;50.834;6.286;2022-09-13T17:09:01;99078.25;;;25.18
15144;BMP180;7672;50.834;6.286;2022-09-13T17:11:34;99079.59;;;25.11
15144;BMP180;7672;50.834;6.286;2022-09-13T17:14:05;99076.63;;;25.03
15144;BMP180;7672;50.834;6.286;2022-09-13T17:16:37;99079.72;;;24.95
15144;BMP180;7672;50.834;6.286;2022-09-13T17:19:11;99080.19;;;24.88
15144;BMP180;7672;50.834;6.286;2022-09-13T17:21:38;99083.16;;;24.82
15144;BMP180;7672;50.834;6.286;2022-09-13T17:24:05;99072.47;;;24.74
15144;BMP180;7672;50.834;6.286;2022-09-13T17:26:39;99084.09;;;24.67
15144;BMP180;7672;50.834;6.286;2022-09-13T17:29:06;99087.00;;;24.63
15144;BMP180;7672;50.834;6.286;2022-09-13T17:31:33;99083.84;;;24.58
15144;BMP180;7672;50.834;6.286;2022-09-13T17:34:01;99087.63;;;24.52
15144;BMP180;7672;50.834;6.286;2022-09-13T17:36:27;99088.75;;;24.48